Time;durP1;ratioP1;P1;durP2;ratioP2;P2;SDS_P1;SDS_P2;PMS_P1;PMS_P2;Temp;Humidity;BMP_temperature;BMP_pressure;BME280_temperature;BME280_humidity;BME280_pressure;Samples;Min_cycle;Max_cycle;Signal;HPM_P1;HPM_P2
2023/01/07 00:01:02;;;;;;;3.40;2.43;;;9.70;99.90;;;;;;5059196;28;20469;-65
2023/01/07 00:03:33;;;;;;;3.13;2.73;;;9.70;99.90;;;;;;5057537;28;20508;-65
2023/01/07 00:06:00;;;;;;;3.80;2.50;;;9.80;99.90;;;;;;5057965;28;20472;-65
2023/01/07 00:08:33;;;;;;;5.17;2.90;;;9.80;99.90;;;;;;5058636;28;20905;-65
2023/01/07 00:11:02;;;;;;;3.33;2.60;;;9.80;99.90;;;;;;5057087;28;20549;-65
2023/01/07 00:13:29;;;;;;;3.43;2.50;;;9.70;99.90;;;;;;5058028;28;20470;-65
2023/01/07 00:15:59;;;;;;;3.20;2.13;;;9.80;99.90;;;;;;5057880;28;20466;-65
2023/01/07 00:18:27;;;;;;;3.77;2.90;;;9.80;99.90;;;;;;5032429;28;20460;-65
2023/01/07 00:20:57;;;;;;;4.53;2.60;;;9.80;99.90;;;;;;5019443;28;20470;-66
2023/01/07 00:23:25;;;;;;;3.97;2.70;;;9.80;99.90;;;;;;5019438;28;20464;-65
2023/01/07 00:26:01;;;;;;;2.93;2.63;;;9.80;99.90;;;;;;5018989;28;20849;-65
2023/01/07 00:28:28;;;;;;;3.53;2.37;;;9.80;99.90;;;;;;5018753;28;20499;-65
2023/01/07 00:31:00;;;;;;;3.47;2.77;;;9.80;99.90;;;;;;5018327;28;20464;-65
2023/01/07 00:33:34;;;;;;;3.20;2.47;;;9.80;99.90;;;;;;5019187;28;20533;-65
2023/01/07 00:36:02;;;;;;;3.00;2.60;;;9.80;99.90;;;;;;5018926;28;20762;-65
2023/01/07 00:38:30;;;;;;;3.00;2.37;;;9.80;99.90;;;;;;5018815;28;20467;-64
2023/01/07 00:40:57;;;;;;;5.37;2.40;;;9.80;99.90;;;;;;5018887;28;20481;-65
2023/01/07 00:43:24;;;;;;;2.90;2.10;;;9.80;99.90;;;;;;5018487;28;20463;-66
2023/01/07 00:45:51;;;;;;;2.70;2.40;;;9.80;99.90;;;;;;5018786;28;20926;-66
2023/01/07 00:48:18;;;;;;;3.40;2.40;;;9.80;99.90;;;;;;5018884;28;20924;-65
2023/01/07 00:50:48;;;;;;;3.63;2.20;;;9.80;99.90;;;;;;5018780;28;20461;-64
2023/01/07 00:53:18;;;;;;;3.20;2.47;;;9.80;99.90;;;;;;5018462;28;20939;-65
2023/01/07 00:55:45;;;;;;;2.73;2.30;;;9.80;99.90;;;;;;5018485;28;20470;-65
2023/01/07 00:58:15;;;;;;;3.53;2.50;;;9.80;99.90;;;;;;5018591;28;20546;-65
2023/01/07 01:00:42;;;;;;;7.63;2.20;;;9.70;99.90;;;;;;5018768;28;20546;-65
2023/01/07 01:03:11;;;;;;;3.40;2.50;;;9.80;99.90;;;;;;5018108;28;20443;-65
2023/01/07 01:05:39;;;;;;;2.53;2.10;;;9.80;99.90;;;;;;5018081;28;20430;-65
2023/01/07 01:08:09;;;;;;;3.63;2.60;;;9.80;99.90;;;;;;5023450;28;20468;-65
2023/01/07 01:10:36;;;;;;;3.80;2.80;;;9.80;99.90;;;;;;5037929;28;20888;-65
2023/01/07 01:13:04;;;;;;;2.90;2.57;;;9.80;99.90;;;;;;5037677;28;20498;-65
2023/01/07 01:15:41;;;;;;;3.30;2.40;;;9.80;99.90;;;;;;5034896;28;20490;-64
2023/01/07 01:18:08;;;;;;;2.83;2.33;;;9.80;99.90;;;;;;5038003;28;20888;-65
2023/01/07 01:20:36;;;;;;;2.87;2.60;;;9.80;99.90;;;;;;5038008;28;20478;-65
2023/01/07 01:23:03;;;;;;;2.50;2.20;;;9.80;99.90;;;;;;5037500;28;20763;-65
2023/01/07 01:25:34;;;;;;;2.87;2.20;;;9.80;99.90;;;;;;5038205;28;20452;-65
2023/01/07 01:28:04;;;;;;;5.83;2.50;;;9.80;99.90;;;;;;5038126;28;20463;-65
2023/01/07 01:30:31;;;;;;;2.90;2.17;;;9.80;99.90;;;;;;5037597;28;20851;-65
2023/01/07 01:32:58;;;;;;;3.20;2.10;;;9.80;99.90;;;;;;5037364;28;20445;-65
2023/01/07 01:35:25;;;;;;;3.60;2.30;;;9.80;99.90;;;;;;5037544;28;20959;-65
2023/01/07 01:37:52;;;;;;;2.57;1.83;;;9.80;99.90;;;;;;5038086;28;20438;-65
2023/01/07 01:40:19;;;;;;;2.60;1.90;;;9.80;99.90;;;;;;5037753;28;20438;-64
2023/01/07 01:42:48;;;;;;;3.00;2.00;;;9.80;99.90;;;;;;5037564;28;20463;-65
2023/01/07 01:45:15;;;;;;;3.00;2.20;;;9.80;99.90;;;;;;5036964;28;20463;-65
2023/01/07 01:47:46;;;;;;;2.77;2.10;;;9.80;99.90;;;;;;5037271;28;20463;-65
2023/01/07 01:50:18;;;;;;;3.63;2.20;;;9.80;99.90;;;;;;5037506;28;20466;-64
2023/01/07 01:52:49;;;;;;;2.67;1.90;;;9.80;99.90;;;;;;5037509;28;20459;-64
2023/01/07 01:55:20;;;;;;;2.77;2.17;;;9.80;99.90;;;;;;5037015;28;20469;-64
2023/01/07 01:57:53;;;;;;;3.60;2.13;;;9.80;99.90;;;;;;5037168;28;20464;-65
2023/01/07 02:00:20;;;;;;;3.10;2.20;;;9.80;99.90;;;;;;5037336;28;20749;-65
2023/01/07 02:02:51;;;;;;;2.50;2.07;;;9.90;99.90;;;;;;5037277;28;20444;-65
2023/01/07 02:05:19;;;;;;;3.80;1.97;;;9.80;99.90;;;;;;5037210;28;20433;-67
2023/01/07 02:07:46;;;;;;;3.23;2.93;;;9.80;99.90;;;;;;5017571;28;20910;-65
2023/01/07 02:10:16;;;;;;;2.40;2.17;;;9.80;99.90;;;;;;5017399;28;20467;-65
2023/01/07 02:12:57;;;;;;;3.20;2.10;;;9.80;99.90;;;;;;5017973;28;20542;-65
2023/01/07 02:15:34;;;;;;;2.33;2.00;;;9.80;99.90;;;;;;5017251;28;20514;-65
2023/01/07 02:18:25;;;;;;;4.83;2.10;;;9.80;99.90;;;;;;5017844;28;20438;-64
2023/01/07 02:21:08;;;;;;;2.70;1.90;;;9.80;99.90;;;;;;5016891;28;20474;-65
2023/01/07 02:24:01;;;;;;;1.90;1.37;;;9.80;99.90;;;;;;5017256;28;20467;-65
2023/01/07 02:27:01;;;;;;;2.43;1.70;;;9.80;99.90;;;;;;4963997;28;20747;-65
2023/01/07 02:30:17;;;;;;;5.20;1.97;;;9.80;99.90;;;;;;5016460;28;20438;-65
2023/01/07 02:32:59;;;;;;;2.50;1.90;;;9.80;99.90;;;;;;5017409;28;20825;-65
2023/01/07 02:35:37;;;;;;;2.30;1.97;;;9.70;99.90;;;;;;5020432;28;20944;-65
2023/01/07 02:38:12;;;;;;;3.77;2.20;;;9.70;99.90;;;;;;5021518;28;20753;-65
2023/01/07 02:40:48;;;;;;;2.10;1.70;;;9.70;99.90;;;;;;5021430;28;20489;-66
2023/01/07 02:43:22;;;;;;;2.87;1.70;;;9.70;99.90;;;;;;5020812;28;20469;-65
2023/01/07 02:45:57;;;;;;;2.10;1.90;;;9.70;99.90;;;;;;5020837;28;20466;-65
2023/01/07 02:48:27;;;;;;;2.90;1.80;;;9.80;99.90;;;;;;5021080;28;20445;-65
2023/01/07 02:50:54;;;;;;;2.93;2.23;;;9.70;99.90;;;;;;5020712;28;20752;-65
2023/01/07 02:53:21;;;;;;;2.10;1.63;;;9.70;99.90;;;;;;5020698;28;20482;-65
2023/01/07 02:56:06;;;;;;;2.40;2.00;;;9.80;99.90;;;;;;5020703;28;20502;-65
2023/01/07 02:59:05;;;;;;;2.73;1.90;;;9.70;99.90;;;;;;5020388;28;20498;-65
2023/01/07 03:01:52;;;;;;;2.60;2.27;;;9.80;99.90;;;;;;5004855;28;20467;-65
2023/01/07 03:04:46;;;;;;;2.40;1.90;;;9.70;99.90;;;;;;5020967;28;20466;-65
2023/01/07 03:07:28;;;;;;;2.70;2.40;;;9.80;99.90;;;;;;5035904;28;20513;-66
2023/01/07 03:10:01;;;;;;;3.90;2.00;;;9.80;99.90;;;;;;5040024;28;20467;-65
2023/01/07 03:12:35;;;;;;;2.40;2.00;;;9.70;99.90;;;;;;5040891;28;20536;-66
2023/01/07 03:15:09;;;;;;;2.30;1.70;;;9.70;99.90;;;;;;5040294;28;20494;-66
2023/01/07 03:17:42;;;;;;;2.43;1.90;;;9.70;99.90;;;;;;5040010;28;20467;-66
2023/01/07 03:20:13;;;;;;;2.40;1.90;;;9.80;99.90;;;;;;5040228;28;20463;-66
2023/01/07 03:22:43;;;;;;;3.57;2.47;;;9.80;99.90;;;;;;5040296;28;20463;-66
2023/01/07 03:25:13;;;;;;;2.83;2.10;;;9.80;99.90;;;;;;5040146;28;20723;-66
2023/01/07 03:27:42;;;;;;;3.17;2.20;;;9.80;99.90;;;;;;5031864;28;20920;-66
2023/01/07 03:30:14;;;;;;;2.17;1.97;;;9.80;99.90;;;;;;5039921;28;20463;-67
2023/01/07 03:32:46;;;;;;;2.80;1.90;;;9.70;99.90;;;;;;5040084;28;20474;-66
2023/01/07 03:35:15;;;;;;;2.40;1.70;;;9.80;99.90;;;;;;5039488;28;20477;-67
2023/01/07 03:37:43;;;;;;;2.90;2.23;;;9.70;99.90;;;;;;5040012;28;20718;-66
2023/01/07 03:40:11;;;;;;;2.40;1.87;;;9.70;99.90;;;;;;5039844;28;20914;-67
2023/01/07 03:42:39;;;;;;;2.47;1.90;;;9.80;99.90;;;;;;5039928;28;20892;-66
2023/01/07 03:45:11;;;;;;;4.13;2.10;;;9.70;99.90;;;;;;5038715;28;20463;-66
2023/01/07 03:47:40;;;;;;;3.30;2.67;;;9.70;99.90;;;;;;5040005;28;20530;-66
2023/01/07 03:50:08;;;;;;;4.00;1.90;;;9.70;99.90;;;;;;5039723;28;20433;-66
2023/01/07 03:52:37;;;;;;;3.07;2.03;;;9.70;99.90;;;;;;5039482;28;20469;-66
2023/01/07 03:55:05;;;;;;;2.37;1.80;;;9.70;99.90;;;;;;5039307;28;20758;-66
2023/01/07 03:57:33;;;;;;;2.67;2.30;;;9.70;99.90;;;;;;5039595;28;20457;-66
2023/01/07 04:00:00;;;;;;;3.10;2.17;;;9.70;99.90;;;;;;5039832;28;20463;-66
2023/01/07 04:02:28;;;;;;;4.90;2.17;;;9.70;99.90;;;;;;5039497;28;20437;-67
2023/01/07 04:04:55;;;;;;;3.30;2.87;;;9.70;99.90;;;;;;5039338;28;20766;-68
2023/01/07 04:07:22;;;;;;;2.53;2.10;;;9.70;99.90;;;;;;5039141;28;20493;-66
2023/01/07 04:09:50;;;;;;;3.83;2.53;;;9.60;99.90;;;;;;5039472;28;20768;-66
2023/01/07 04:12:18;;;;;;;6.13;2.47;;;9.60;99.90;;;;;;5039584;28;20463;-66
2023/01/07 04:14:45;;;;;;;3.40;2.40;;;9.50;99.90;;;;;;5039358;28;20459;-66
2023/01/07 04:17:12;;;;;;;3.90;3.20;;;9.40;99.90;;;;;;5039127;28;20470;-67
2023/01/07 04:19:40;;;;;;;4.13;2.53;;;9.50;99.90;;;;;;5038995;28;20463;-66
2023/01/07 04:22:07;;;;;;;2.70;2.50;;;9.40;99.90;;;;;;5039192;28;20471;-67
2023/01/07 04:24:34;;;;;;;2.43;2.20;;;9.40;99.90;;;;;;5039418;28;20473;-66
2023/01/07 04:27:03;;;;;;;2.90;2.60;;;9.40;99.90;;;;;;5038653;28;20463;-66
2023/01/07 04:29:31;;;;;;;2.97;2.33;;;9.40;99.90;;;;;;5038017;28;20470;-66
2023/01/07 04:31:58;;;;;;;4.80;2.63;;;9.40;99.90;;;;;;5038667;28;20434;-66
2023/01/07 04:34:25;;;;;;;3.67;2.80;;;9.40;99.90;;;;;;5038960;28;20437;-65
2023/01/07 04:36:52;;;;;;;4.07;2.60;;;9.40;99.90;;;;;;5038514;28;20845;-66
2023/01/07 04:39:19;;;;;;;3.93;2.57;;;9.40;99.90;;;;;;5038592;28;20463;-67
2023/01/07 04:41:46;;;;;;;4.23;3.70;;;9.30;99.90;;;;;;5038972;28;20505;-66
2023/01/07 04:44:16;;;;;;;3.80;2.67;;;9.20;99.90;;;;;;5038821;28;20448;-66
2023/01/07 04:46:44;;;;;;;2.70;2.20;;;9.30;99.90;;;;;;5038935;28;20764;-66
2023/01/07 04:49:11;;;;;;;3.47;2.73;;;9.20;99.90;;;;;;5038825;28;20463;-66
2023/01/07 04:51:38;;;;;;;3.60;2.93;;;9.20;99.90;;;;;;5038490;28;20561;-66
2023/01/07 04:54:05;;;;;;;3.10;2.53;;;9.20;99.90;;;;;;5038614;28;20907;-66
2023/01/07 04:56:32;;;;;;;4.20;2.70;;;9.20;99.90;;;;;;5037954;28;20491;-66
2023/01/07 04:58:59;;;;;;;3.10;2.80;;;9.10;99.90;;;;;;5038576;28;20463;-66
2023/01/07 05:01:29;;;;;;;4.00;2.60;;;9.10;99.90;;;;;;5037794;28;20475;-66
2023/01/07 05:03:57;;;;;;;5.90;3.33;;;9.10;99.90;;;;;;5038557;28;20474;-66
2023/01/07 05:06:24;;;;;;;3.80;2.60;;;9.10;99.90;;;;;;5037837;28;20487;-66
2023/01/07 05:08:52;;;;;;;3.30;3.00;;;9.10;99.90;;;;;;5037887;28;20484;-66
2023/01/07 05:11:20;;;;;;;3.20;2.90;;;9.00;99.90;;;;;;5038646;28;20469;-66
2023/01/07 05:13:48;;;;;;;3.40;3.00;;;9.10;99.90;;;;;;5038191;28;20475;-66
2023/01/07 05:16:16;;;;;;;5.63;2.70;;;9.00;99.90;;;;;;5038275;28;20466;-66
2023/01/07 05:18:45;;;;;;;4.57;2.90;;;9.00;99.90;;;;;;5037814;28;20463;-66
2023/01/07 05:21:12;;;;;;;3.50;2.87;;;9.00;99.90;;;;;;5038294;28;20466;-66
2023/01/07 05:23:39;;;;;;;3.90;3.33;;;9.00;99.90;;;;;;5037895;28;20471;-66
2023/01/07 05:26:07;;;;;;;3.70;2.73;;;8.90;99.90;;;;;;5038074;28;20494;-66
2023/01/07 05:28:34;;;;;;;3.93;2.87;;;9.00;99.90;;;;;;5037626;28;20463;-66
2023/01/07 05:31:02;;;;;;;4.20;3.17;;;8.90;99.90;;;;;;5037287;28;20463;-66
2023/01/07 05:33:29;;;;;;;4.37;3.30;;;8.90;99.90;;;;;;5037706;28;20474;-66
2023/01/07 05:35:57;;;;;;;4.73;3.23;;;8.90;99.90;;;;;;5038071;28;20491;-66
2023/01/07 05:38:24;;;;;;;3.80;3.10;;;9.00;99.90;;;;;;5038179;28;20448;-66
2023/01/07 05:40:51;;;;;;;4.63;3.27;;;9.00;99.90;;;;;;5035697;28;20905;-66
2023/01/07 05:43:20;;;;;;;3.93;3.10;;;9.00;99.90;;;;;;5037334;28;20479;-66
2023/01/07 05:45:47;;;;;;;4.53;3.20;;;9.00;99.90;;;;;;5037588;28;20465;-66
2023/01/07 05:48:14;;;;;;;4.30;3.80;;;9.00;99.90;;;;;;5037409;28;20463;-66
2023/01/07 05:50:42;;;;;;;3.30;2.90;;;9.10;99.90;;;;;;5038073;28;20489;-66
2023/01/07 05:53:11;;;;;;;4.07;3.03;;;9.00;99.90;;;;;;5037257;28;20462;-66
2023/01/07 05:55:38;;;;;;;3.90;2.93;;;9.00;99.90;;;;;;5037496;28;20491;-66
2023/01/07 05:58:06;;;;;;;5.03;3.07;;;9.10;99.90;;;;;;5037939;28;20467;-66
2023/01/07 06:00:35;;;;;;;3.30;3.00;;;9.10;99.90;;;;;;5037564;28;20470;-66
2023/01/07 06:03:02;;;;;;;3.10;2.70;;;9.10;99.90;;;;;;5037304;28;20503;-66
2023/01/07 06:05:29;;;;;;;3.10;2.80;;;9.10;99.90;;;;;;5047241;28;20553;-66
2023/01/07 06:07:56;;;;;;;3.00;2.70;;;9.10;99.90;;;;;;5057503;28;20777;-66
2023/01/07 06:10:25;;;;;;;3.80;3.40;;;9.10;99.90;;;;;;5057479;28;20851;-66
2023/01/07 06:12:52;;;;;;;3.23;2.77;;;9.10;99.90;;;;;;5056956;28;20742;-66
2023/01/07 06:15:19;;;;;;;4.07;3.67;;;9.10;99.90;;;;;;5057366;28;20880;-66
2023/01/07 06:17:46;;;;;;;4.00;2.93;;;9.10;99.90;;;;;;5057123;28;20437;-66
2023/01/07 06:20:14;;;;;;;3.43;3.03;;;9.10;99.90;;;;;;5057313;28;20462;-66
2023/01/07 06:22:42;;;;;;;4.07;2.80;;;9.10;99.90;;;;;;5057485;28;20524;-66
2023/01/07 06:25:10;;;;;;;3.70;3.13;;;9.10;99.90;;;;;;5057033;28;20469;-66
2023/01/07 06:27:40;;;;;;;3.10;2.80;;;9.10;99.90;;;;;;5057212;28;20749;-69
2023/01/07 06:30:08;;;;;;;4.30;3.30;;;9.20;99.90;;;;;;5056334;28;20793;-66
2023/01/07 06:32:38;;;;;;;3.67;3.10;;;9.20;99.90;;;;;;5057141;28;20470;-66
2023/01/07 06:35:06;;;;;;;3.87;3.40;;;9.20;99.90;;;;;;5056816;28;20511;-66
2023/01/07 06:37:34;;;;;;;3.27;2.40;;;9.20;99.90;;;;;;5056893;28;20498;-66
2023/01/07 06:40:01;;;;;;;3.60;2.60;;;9.20;99.90;;;;;;5057374;28;20496;-66
2023/01/07 06:42:28;;;;;;;4.00;2.60;;;9.30;99.90;;;;;;5057002;28;20462;-66
2023/01/07 06:44:56;;;;;;;3.80;3.20;;;9.30;99.90;;;;;;5056502;28;20468;-64
2023/01/07 06:47:24;;;;;;;3.40;2.53;;;9.30;99.90;;;;;;5056879;28;20974;-64
2023/01/07 06:49:51;;;;;;;3.77;2.77;;;9.20;99.90;;;;;;5023376;28;20464;-64
2023/01/07 06:52:19;;;;;;;3.20;2.47;;;9.20;99.90;;;;;;5017187;28;20889;-64
2023/01/07 06:54:46;;;;;;;5.10;2.87;;;9.20;99.90;;;;;;5017405;28;20464;-64
2023/01/07 06:57:13;;;;;;;2.90;2.57;;;9.20;99.90;;;;;;5024375;28;20482;-63
2023/01/07 06:59:40;;;;;;;5.03;2.87;;;9.20;99.90;;;;;;5056605;28;20750;-64
2023/01/07 07:02:17;;;;;;;4.60;2.80;;;9.20;99.90;;;;;;5056773;28;20462;-64
2023/01/07 07:04:44;;;;;;;3.10;2.50;;;9.30;99.90;;;;;;5056780;28;20458;-64
2023/01/07 07:07:11;;;;;;;3.57;2.63;;;9.30;99.90;;;;;;5056250;28;20461;-64
2023/01/07 07:09:38;;;;;;;2.60;2.27;;;9.30;99.90;;;;;;5056465;28;20502;-64
2023/01/07 07:12:06;;;;;;;2.60;2.33;;;9.30;99.90;;;;;;5056914;28;20472;-64
2023/01/07 07:14:33;;;;;;;2.80;2.00;;;9.20;99.90;;;;;;5056300;28;20480;-64
2023/01/07 07:17:01;;;;;;;4.93;2.10;;;9.30;99.90;;;;;;5043718;28;20933;-64
2023/01/07 07:19:29;;;;;;;5.67;4.30;;;9.40;99.90;;;;;;5016909;28;20456;-64
2023/01/07 07:21:57;;;;;;;3.83;2.13;;;9.30;99.90;;;;;;5020233;28;20470;-65
2023/01/07 07:24:24;;;;;;;3.40;2.60;;;9.30;99.90;;;;;;5020371;28;20475;-64
2023/01/07 07:26:51;;;;;;;3.77;2.87;;;9.30;99.90;;;;;;5019734;28;20502;-64
2023/01/07 07:29:18;;;;;;;5.00;3.60;;;9.30;99.90;;;;;;5019637;28;20464;-64
2023/01/07 07:31:45;;;;;;;4.13;2.97;;;9.40;99.90;;;;;;5020008;28;20911;-64
2023/01/07 07:34:13;;;;;;;3.93;3.10;;;9.30;99.90;;;;;;5020123;28;20475;-64
2023/01/07 07:36:41;;;;;;;6.33;3.90;;;9.40;99.90;;;;;;5023852;28;20491;-64
2023/01/07 07:39:08;;;;;;;8.70;4.20;;;9.40;99.90;;;;;;5039407;28;20458;-64
2023/01/07 07:41:35;;;;;;;3.70;2.97;;;9.40;99.90;;;;;;5039902;28;20473;-64
2023/01/07 07:44:03;;;;;;;7.43;4.13;;;9.40;99.90;;;;;;5039666;28;20494;-64
2023/01/07 07:46:30;;;;;;;6.60;4.70;;;9.30;99.90;;;;;;5039947;28;20435;-64
2023/01/07 07:48:58;;;;;;;9.13;6.23;;;9.40;99.90;;;;;;5039622;28;20469;-64
2023/01/07 07:51:25;;;;;;;4.50;3.50;;;9.40;99.90;;;;;;5039662;28;20903;-64
2023/01/07 07:53:53;;;;;;;3.27;2.53;;;9.40;99.90;;;;;;5039458;28;20473;-64
2023/01/07 07:56:20;;;;;;;3.00;2.50;;;9.40;99.90;;;;;;5039813;28;20494;-65
2023/01/07 07:58:47;;;;;;;2.90;2.60;;;9.40;99.90;;;;;;5039562;28;20885;-64
2023/01/07 08:01:15;;;;;;;2.77;2.10;;;9.40;99.90;;;;;;5039144;28;20557;-64
2023/01/07 08:03:42;;;;;;;3.00;2.20;;;9.30;99.90;;;;;;5038933;28;20469;-65
2023/01/07 08:06:11;;;;;;;2.67;1.87;;;9.30;99.90;;;;;;5031726;28;20928;-64
2023/01/07 08:08:38;;;;;;;3.60;2.47;;;9.40;99.90;;;;;;5027757;28;20459;-64
2023/01/07 08:11:06;;;;;;;4.47;2.53;;;9.30;99.90;;;;;;5026598;28;21111;-64
2023/01/07 08:13:34;;;;;;;5.13;3.37;;;9.30;99.90;;;;;;5025180;28;20881;-65
2023/01/07 08:16:01;;;;;;;4.80;3.33;;;9.30;99.90;;;;;;5017604;28;20542;-64
2023/01/07 08:18:28;;;;;;;7.03;5.87;;;9.30;99.90;;;;;;5018013;28;20522;-65
2023/01/07 08:20:55;;;;;;;4.10;3.70;;;9.30;99.90;;;;;;5017733;28;20471;-64
2023/01/07 08:23:23;;;;;;;5.80;5.30;;;9.30;99.90;;;;;;5017358;28;20471;-64
2023/01/07 08:25:50;;;;;;;3.80;3.40;;;9.30;99.90;;;;;;5017077;28;20471;-64
2023/01/07 08:28:18;;;;;;;6.13;5.63;;;9.30;99.90;;;;;;5017488;28;20438;-64
2023/01/07 08:30:45;;;;;;;4.37;3.97;;;9.30;99.90;;;;;;5016588;28;20471;-64
2023/01/07 08:33:12;;;;;;;4.80;3.80;;;9.40;99.90;;;;;;5016595;28;20910;-64
2023/01/07 08:35:39;;;;;;;3.83;3.43;;;9.40;99.90;;;;;;5017174;28;20475;-64
2023/01/07 08:38:08;;;;;;;3.60;2.37;;;9.40;99.90;;;;;;5018633;28;20770;-64
2023/01/07 08:40:36;;;;;;;3.70;2.60;;;9.40;99.90;;;;;;5027891;28;20456;-64
2023/01/07 08:43:05;;;;;;;5.33;3.00;;;9.30;99.90;;;;;;5020754;28;20486;-64
2023/01/07 08:45:34;;;;;;;5.00;3.27;;;9.40;99.90;;;;;;5016540;28;20461;-64
2023/01/07 08:48:01;;;;;;;12.77;8.67;;;9.40;99.90;;;;;;5016970;28;20752;-64
2023/01/07 08:50:29;;;;;;;18.03;11.43;;;9.40;99.90;;;;;;5017250;28;20923;-64
2023/01/07 08:52:56;;;;;;;4.10;3.57;;;9.40;99.90;;;;;;5016745;28;20474;-64
2023/01/07 08:55:24;;;;;;;3.50;2.00;;;9.40;99.90;;;;;;5017069;28;20438;-64
2023/01/07 08:57:51;;;;;;;3.80;2.70;;;9.40;99.90;;;;;;5016597;28;20491;-64
2023/01/07 09:00:19;;;;;;;5.03;4.37;;;9.50;99.90;;;;;;5016923;28;20519;-64
2023/01/07 09:02:48;;;;;;;6.87;5.10;;;9.50;99.90;;;;;;5016738;28;20460;-64
2023/01/07 09:05:15;;;;;;;5.37;4.27;;;9.50;99.90;;;;;;5015744;28;20471;-64
2023/01/07 09:07:43;;;;;;;12.27;9.47;;;9.50;99.90;;;;;;5015675;28;20497;-64
2023/01/07 09:10:11;;;;;;;13.83;9.40;;;9.50;99.90;;;;;;5016516;28;20741;-64
2023/01/07 09:12:38;;;;;;;12.17;7.20;;;9.50;99.90;;;;;;5016797;28;20477;-64
2023/01/07 09:15:07;;;;;;;11.60;7.27;;;9.50;99.90;;;;;;5017467;28;20470;-64
2023/01/07 09:17:34;;;;;;;10.00;6.80;;;9.50;99.90;;;;;;5018116;28;20978;-64
2023/01/07 09:20:03;;;;;;;5.67;3.20;;;9.50;99.90;;;;;;5018092;28;20467;-64
2023/01/07 09:22:31;;;;;;;6.07;3.70;;;9.50;99.90;;;;;;5017781;28;20438;-63
2023/01/07 09:24:58;;;;;;;4.80;3.20;;;9.50;99.90;;;;;;5016365;28;20491;-63
2023/01/07 09:27:26;;;;;;;7.17;3.03;;;9.50;99.90;;;;;;5047089;28;20465;-63
2023/01/07 09:29:53;;;;;;;5.17;2.80;;;9.50;99.90;;;;;;5056946;28;20523;-63
2023/01/07 09:32:20;;;;;;;3.30;2.63;;;9.50;99.90;;;;;;5044754;28;20464;-63
2023/01/07 09:34:47;;;;;;;3.10;2.47;;;9.50;99.90;;;;;;5024948;28;20478;-64
2023/01/07 09:37:16;;;;;;;3.70;2.90;;;9.50;99.90;;;;;;5026315;28;20491;-63
2023/01/07 09:39:43;;;;;;;14.23;3.10;;;9.50;99.90;;;;;;5026694;28;20468;-63
2023/01/07 09:42:21;;;;;;;3.60;2.77;;;9.50;99.90;;;;;;5025539;28;20460;-63
2023/01/07 09:44:59;;;;;;;4.80;2.90;;;9.60;99.90;;;;;;5025263;28;20460;-63
2023/01/07 09:47:29;;;;;;;3.87;2.97;;;9.60;99.90;;;;;;5024638;28;20462;-63
2023/01/07 09:50:01;;;;;;;4.90;2.20;;;9.60;99.90;;;;;;5024378;28;20459;-63
2023/01/07 09:52:36;;;;;;;4.07;3.33;;;9.70;99.90;;;;;;5023296;28;20450;-64
2023/01/07 09:55:11;;;;;;;3.30;2.80;;;9.70;99.90;;;;;;5025769;28;20808;-64
2023/01/07 09:57:39;;;;;;;8.43;3.20;;;9.70;99.90;;;;;;5025463;28;20491;-64
2023/01/07 10:00:14;;;;;;;3.20;2.90;;;9.70;99.90;;;;;;5023899;28;20483;-63
2023/01/07 10:02:52;;;;;;;5.20;3.60;;;9.70;99.90;;;;;;5024979;28;20467;-63
2023/01/07 10:05:32;;;;;;;3.93;3.40;;;9.80;99.90;;;;;;5016143;28;20456;-63
2023/01/07 10:08:09;;;;;;;7.57;3.80;;;9.90;99.90;;;;;;5005935;28;20487;-63
2023/01/07 10:10:45;;;;;;;4.00;3.50;;;10.00;99.90;;;;;;5015401;28;20525;-64
2023/01/07 10:13:29;;;;;;;6.30;4.00;;;10.10;99.90;;;;;;5014904;28;20557;-63
2023/01/07 10:16:02;;;;;;;5.37;4.23;;;10.10;99.90;;;;;;5014776;28;20451;-63
2023/01/07 10:18:39;;;;;;;6.80;4.60;;;10.30;99.90;;;;;;5014995;28;20507;-63
2023/01/07 10:21:16;;;;;;;4.57;4.10;;;10.20;99.90;;;;;;5015827;28;20710;-63
2023/01/07 10:23:48;;;;;;;6.73;4.03;;;10.30;99.90;;;;;;5016554;28;20562;-63
2023/01/07 10:26:29;;;;;;;5.30;4.43;;;10.50;50.40;;;;;;5017116;28;20459;-63
2023/01/07 10:29:00;;;;;;;4.73;4.07;;;10.60;1.00;;;;;;5006765;28;20476;-62
2023/01/07 10:31:28;;;;;;;5.10;4.60;;;10.90;99.90;;;;;;5004314;28;20478;-63
2023/01/07 10:33:57;;;;;;;6.60;4.53;;;11.10;1.00;;;;;;5001821;28;20788;-64
2023/01/07 10:36:26;;;;;;;5.03;4.40;;;11.20;99.90;;;;;;4997827;28;20479;-63
2023/01/07 10:39:02;;;;;;;4.90;4.27;;;11.30;99.90;;;;;;4996216;28;20879;-63
2023/01/07 10:41:39;;;;;;;4.17;3.77;;;11.20;99.90;;;;;;4997366;28;20465;-63
2023/01/07 10:44:41;;;;;;;5.60;4.10;;;11.30;99.90;;;;;;4997254;28;20469;-63
2023/01/07 10:47:18;;;;;;;4.53;3.67;;;11.30;1.00;;;;;;4996027;28;20453;-63
2023/01/07 10:50:02;;;;;;;5.70;4.47;;;11.30;1.00;;;;;;4997460;28;20951;-63
2023/01/07 10:52:40;;;;;;;4.50;4.10;;;11.60;1.00;;;;;;4997807;28;20468;-63
2023/01/07 10:55:41;;;;;;;4.50;3.77;;;11.80;1.00;;;;;;4997887;28;20468;-63
2023/01/07 10:58:10;;;;;;;3.60;3.20;;;11.90;1.00;;;;;;4996147;28;20650;-63
2023/01/07 11:00:39;;;;;;;5.50;4.33;;;11.80;1.00;;;;;;5001190;28;20464;-63
2023/01/07 11:03:18;;;;;;;4.63;3.83;;;11.60;1.00;;;;;;5001246;28;20929;-63
2023/01/07 11:05:46;;;;;;;4.80;4.30;;;11.40;1.00;;;;;;5007364;28;20948;-63
2023/01/07 11:08:25;;;;;;;4.33;3.50;;;11.50;1.00;;;;;;5020889;28;20460;-63
2023/01/07 11:10:54;;;;;;;3.67;3.30;;;11.70;1.00;;;;;;5020356;28;20464;-63
2023/01/07 11:13:24;;;;;;;4.47;3.17;;;11.80;1.00;;;;;;5020569;28;20547;-63
2023/01/07 11:15:56;;;;;;;4.90;3.77;;;11.80;1.00;;;;;;5021003;28;20441;-63
2023/01/07 11:18:30;;;;;;;4.03;3.60;;;11.70;1.00;;;;;;5022821;28;20489;-63
2023/01/07 11:20:59;;;;;;;3.73;3.30;;;11.40;1.00;;;;;;5020270;28;20459;-62
2023/01/07 11:23:35;;;;;;;4.70;2.93;;;11.20;1.00;;;;;;5019970;28;20924;-62
2023/01/07 11:26:25;;;;;;;3.70;2.63;;;11.10;1.00;;;;;;5019414;28;20463;-63
2023/01/07 11:28:54;;;;;;;3.60;3.10;;;11.10;1.00;;;;;;5019647;28;20452;-63
2023/01/07 11:31:22;;;;;;;3.37;2.43;;;11.00;1.00;;;;;;5018376;28;20464;-62
2023/01/07 11:33:52;;;;;;;3.67;2.60;;;11.10;1.00;;;;;;5018503;28;20864;-62
2023/01/07 11:36:19;;;;;;;3.23;2.70;;;11.10;1.00;;;;;;5018833;28;20487;-63
2023/01/07 11:38:47;;;;;;;4.30;2.67;;;11.10;1.00;;;;;;5017674;28;20504;-62
2023/01/07 11:41:23;;;;;;;3.50;2.70;;;11.20;1.00;;;;;;5014670;28;20751;-62
2023/01/07 11:43:54;;;;;;;3.20;2.70;;;11.10;1.00;;;;;;5014855;28;20643;-61
2023/01/07 11:46:22;;;;;;;3.53;2.67;;;11.10;1.00;;;;;;5015024;28;20496;-63
2023/01/07 11:48:52;;;;;;;3.10;2.60;;;10.90;1.00;;;;;;5013428;28;20464;-61
2023/01/07 11:51:21;;;;;;;2.83;2.30;;;10.90;1.00;;;;;;5014838;28;20475;-61
2023/01/07 11:53:54;;;;;;;2.53;2.10;;;10.90;1.00;;;;;;5016071;28;20482;-61
2023/01/07 11:56:28;;;;;;;3.03;2.50;;;10.90;1.00;;;;;;5015548;28;20797;-62
2023/01/07 11:59:31;;;;;;;3.10;2.37;;;10.90;1.00;;;;;;5015038;28;20932;-62
2023/01/07 12:01:59;;;;;;;2.80;2.30;;;10.80;1.00;;;;;;5014450;28;20476;-62
2023/01/07 12:04:29;;;;;;;2.90;2.43;;;10.80;1.00;;;;;;5018850;28;20529;-62
2023/01/07 12:06:58;;;;;;;3.20;2.60;;;10.80;1.00;;;;;;5022341;28;20488;-62
2023/01/07 12:09:32;;;;;;;2.73;2.37;;;10.80;1.00;;;;;;5016266;28;21052;-62
2023/01/07 12:12:30;;;;;;;3.00;2.63;;;10.90;1.00;;;;;;5018264;28;20525;-59
2023/01/07 12:14:56;;;;;;;2.80;2.33;;;11.10;1.00;;;;;;5017646;28;20455;-62
2023/01/07 12:17:25;;;;;;;2.60;2.40;;;11.10;1.00;;;;;;5016854;28;20978;-62
2023/01/07 12:20:21;;;;;;;3.20;2.90;;;11.00;1.00;;;;;;5019273;28;20465;-61
2023/01/07 12:22:59;;;;;;;2.80;2.30;;;11.00;1.00;;;;;;5032948;28;20442;-61
2023/01/07 12:25:40;;;;;;;3.60;2.80;;;11.20;1.00;;;;;;5036465;28;20437;-59
2023/01/07 12:28:12;;;;;;;3.87;2.27;;;11.60;1.00;;;;;;5037442;28;20437;-62
2023/01/07 12:31:07;;;;;;;5.07;2.43;;;11.60;99.90;;;;;;5038732;28;20463;-62
2023/01/07 12:33:55;;;;;;;6.40;2.60;;;11.70;99.90;;;;;;5038713;28;20459;-62
2023/01/07 12:36:34;;;;;;;3.10;2.53;;;11.80;99.90;;;;;;5038171;28;20487;-61
2023/01/07 12:39:06;;;;;;;2.50;2.20;;;11.70;99.90;;;;;;5037045;28;20487;-61
2023/01/07 12:41:39;;;;;;;2.50;2.10;;;11.50;99.90;;;;;;5038619;28;20440;-61
2023/01/07 12:44:13;;;;;;;2.77;2.17;;;11.30;99.90;;;;;;5038760;28;20891;-61
2023/01/07 12:46:44;;;;;;;2.37;1.90;;;11.30;99.90;;;;;;5031621;28;20931;-61
2023/01/07 12:49:17;;;;;;;3.13;2.50;;;11.30;99.90;;;;;;5018609;28;20785;-61
2023/01/07 12:51:50;;;;;;;2.80;2.20;;;11.30;99.90;;;;;;5018370;28;20877;-59
2023/01/07 12:54:21;;;;;;;2.80;2.20;;;11.20;99.90;;;;;;5018368;28;20468;-61
2023/01/07 12:56:56;;;;;;;3.40;1.97;;;11.10;99.90;;;;;;5018392;28;20841;-61
2023/01/07 12:59:31;;;;;;;2.77;2.27;;;11.20;99.90;;;;;;5018520;28;20501;-59
2023/01/07 13:02:13;;;;;;;2.50;2.10;;;11.20;99.90;;;;;;5018583;28;20463;-59
2023/01/07 13:04:49;;;;;;;2.37;1.93;;;11.30;99.90;;;;;;5018294;28;20478;-60
2023/01/07 13:07:21;;;;;;;4.70;2.43;;;11.30;99.90;;;;;;5018038;28;20492;-61
2023/01/07 13:09:51;;;;;;;2.80;2.10;;;11.20;99.90;;;;;;5027569;28;20437;-62
2023/01/07 13:12:44;;;;;;;2.40;1.93;;;11.10;99.90;;;;;;5038497;28;20464;-61
2023/01/07 13:15:20;;;;;;;3.40;2.00;;;11.20;99.90;;;;;;5018335;28;20819;-58